sensor_id;sensor_type;location;lat;lon;timestamp;temperature;humidity
26575;DHT22;67165;50.256;10.978;2023-04-06T00:01:03;-1.60;98.00
26575;DHT22;67165;50.256;10.978;2023-04-06T00:03:28;-1.60;98.00
26575;DHT22;67165;50.256;10.978;2023-04-06T00:05:54;-1.60;98.00
26575;DHT22;67165;50.256;10.978;2023-04-06T00:08:20;-1.60;98.00
26575;DHT22;67165;50.256;10.978;2023-04-06T00:10:47;-1.60;98.00
26575;DHT22;67165;50.256;10.978;2023-04-06T00:13:13;-1.60;98.00
26575;DHT22;67165;50.256;10.978;2023-04-06T00:15:38;-1.60;98.00
26575;DHT22;67165;50.256;10.978;2023-04-06T00:18:04;-1.70;98.00
26575;DHT22;67165;50.256;10.978;2023-04-06T00:20:30;-1.70;98.00
26575;DHT22;67165;50.256;10.978;2023-04-06T00:22:56;-1.70;98.00
26575;DHT22;67165;50.256;10.978;2023-04-06T00:25:22;-1.70;98.00
26575;DHT22;67165;50.256;10.978;2023-04-06T00:27:47;-1.80;98.00
26575;DHT22;67165;50.256;10.978;2023-04-06T00:30:13;-1.80;98.00
26575;DHT22;67165;50.256;10.978;2023-04-06T00:32:39;-1.80;98.00
26575;DHT22;67165;50.256;10.978;2023-04-06T00:35:05;-1.80;98.00
26575;DHT22;67165;50.256;10.978;2023-04-06T00:37:31;-1.80;98.00
26575;DHT22;67165;50.256;10.978;2023-04-06T00:39:57;-1.80;98.00
26575;DHT22;67165;50.256;10.978;2023-04-06T00:42:23;-1.90;98.00
26575;DHT22;67165;50.256;10.978;2023-04-06T00:47:18;-1.90;98.00
26575;DHT22;67165;50.256;10.978;2023-04-06T00:49:44;-1.90;98.00
26575;DHT22;67165;50.256;10.978;2023-04-06T00:52:10;-1.90;98.00
26575;DHT22;67165;50.256;10.978;2023-04-06T00:54:35;-2.00;98.00
26575;DHT22;67165;50.256;10.978;2023-04-06T00:57:01;-1.90;98.00
26575;DHT22;67165;50.256;10.978;2023-04-06T00:59:28;-2.00;98.00
26575;DHT22;67165;50.256;10.978;2023-04-06T01:01:54;-2.00;98.00
26575;DHT22;67165;50.256;10.978;2023-04-06T01:04:20;-2.00;98.00
26575;DHT22;67165;50.256;10.978;2023-04-06T01:06:48;-1.90;98.00
26575;DHT22;67165;50.256;10.978;2023-04-06T01:09:14;-2.00;98.00
26575;DHT22;67165;50.256;10.978;2023-04-06T01:11:40;-2.00;98.00
26575;DHT22;67165;50.256;10.978;2023-04-06T01:14:06;-2.00;98.00
26575;DHT22;67165;50.256;10.978;2023-04-06T01:16:32;-2.00;98.00
26575;DHT22;67165;50.256;10.978;2023-04-06T01:18:58;-2.10;98.00
26575;DHT22;67165;50.256;10.978;2023-04-06T01:21:24;-2.10;98.00
26575;DHT22;67165;50.256;10.978;2023-04-06T01:23:50;-2.10;98.00
26575;DHT22;67165;50.256;10.978;2023-04-06T01:26:16;-2.10;98.00
26575;DHT22;67165;50.256;10.978;2023-04-06T01:28:42;-2.10;98.00
26575;DHT22;67165;50.256;10.978;2023-04-06T01:31:08;-2.10;98.00
26575;DHT22;67165;50.256;10.978;2023-04-06T01:33:34;-2.10;98.00
26575;DHT22;67165;50.256;10.978;2023-04-06T01:36:01;-2.10;98.00
26575;DHT22;67165;50.256;10.978;2023-04-06T01:38:27;-2.20;98.00
26575;DHT22;67165;50.256;10.978;2023-04-06T01:40:53;-2.20;98.00
26575;DHT22;67165;50.256;10.978;2023-04-06T01:43:19;-2.20;98.00
26575;DHT22;67165;50.256;10.978;2023-04-06T01:45:45;-2.20;98.00
26575;DHT22;67165;50.256;10.978;2023-04-06T01:48:11;-2.20;98.00
26575;DHT22;67165;50.256;10.978;2023-04-06T01:50:36;-2.20;98.00
26575;DHT22;67165;50.256;10.978;2023-04-06T01:53:02;-2.30;98.00
26575;DHT22;67165;50.256;10.978;2023-04-06T01:55:28;-2.30;98.00
26575;DHT22;67165;50.256;10.978;2023-04-06T01:57:53;-2.30;98.00
26575;DHT22;67165;50.256;10.978;2023-04-06T02:00:19;-2.30;98.00
26575;DHT22;67165;50.256;10.978;2023-04-06T02:02:45;-2.30;98.00
26575;DHT22;67165;50.256;10.978;2023-04-06T02:05:11;-2.30;98.00
26575;DHT22;67165;50.256;10.978;2023-04-06T02:07:36;-2.30;98.00
26575;DHT22;67165;50.256;10.978;2023-04-06T02:10:02;-2.40;98.00
26575;DHT22;67165;50.256;10.978;2023-04-06T02:12:28;-2.40;98.00
26575;DHT22;67165;50.256;10.978;2023-04-06T02:14:54;-2.40;98.00
26575;DHT22;67165;50.256;10.978;2023-04-06T02:17:20;-2.40;98.00
26575;DHT22;67165;50.256;10.978;2023-04-06T02:19:45;-2.40;98.00
26575;DHT22;67165;50.256;10.978;2023-04-06T02:22:11;-2.40;98.00
26575;DHT22;67165;50.256;10.978;2023-04-06T02:24:37;-2.40;98.00
26575;DHT22;67165;50.256;10.978;2023-04-06T02:27:03;-2.30;98.00
26575;DHT22;67165;50.256;10.978;2023-04-06T02:29:28;-2.30;98.00
26575;DHT22;67165;50.256;10.978;2023-04-06T02:31:54;-2.30;98.00
26575;DHT22;67165;50.256;10.978;2023-04-06T02:34:20;-2.30;98.00
26575;DHT22;67165;50.256;10.978;2023-04-06T02:36:46;-2.30;98.00
26575;DHT22;67165;50.256;10.978;2023-04-06T02:39:12;-2.40;98.00
26575;DHT22;67165;50.256;10.978;2023-04-06T02:41:38;-2.40;98.00
26575;DHT22;67165;50.256;10.978;2023-04-06T02:44:07;-2.40;98.00
26575;DHT22;67165;50.256;10.978;2023-04-06T02:46:33;-2.40;98.00
26575;DHT22;67165;50.256;10.978;2023-04-06T02:48:58;-2.50;98.00
26575;DHT22;67165;50.256;10.978;2023-04-06T02:51:26;-2.50;98.00
26575;DHT22;67165;50.256;10.978;2023-04-06T02:53:52;-2.50;98.00
26575;DHT22;67165;50.256;10.978;2023-04-06T02:56:18;-2.50;98.00
26575;DHT22;67165;50.256;10.978;2023-04-06T02:58:43;-2.50;98.00
26575;DHT22;67165;50.256;10.978;2023-04-06T03:01:09;-2.50;98.00
26575;DHT22;67165;50.256;10.978;2023-04-06T03:03:35;-2.60;98.00
26575;DHT22;67165;50.256;10.978;2023-04-06T03:06:01;-2.60;98.00
26575;DHT22;67165;50.256;10.978;2023-04-06T03:08:27;-2.60;98.00
26575;DHT22;67165;50.256;10.978;2023-04-06T03:10:52;-2.60;98.00
26575;DHT22;67165;50.256;10.978;2023-04-06T03:13:18;-2.60;98.00
26575;DHT22;67165;50.256;10.978;2023-04-06T03:15:43;-2.60;98.00
26575;DHT22;67165;50.256;10.978;2023-04-06T03:18:09;-2.60;98.00
26575;DHT22;67165;50.256;10.978;2023-04-06T03:20:35;-2.60;98.00
26575;DHT22;67165;50.256;10.978;2023-04-06T03:23:01;-2.70;98.00
26575;DHT22;67165;50.256;10.978;2023-04-06T03:25:27;-2.70;98.00
26575;DHT22;67165;50.256;10.978;2023-04-06T03:27:53;-2.70;98.00
26575;DHT22;67165;50.256;10.978;2023-04-06T03:30:19;-2.70;98.00
26575;DHT22;67165;50.256;10.978;2023-04-06T03:32:45;-2.80;98.00
26575;DHT22;67165;50.256;10.978;2023-04-06T03:35:11;-2.80;98.00
26575;DHT22;67165;50.256;10.978;2023-04-06T03:37:36;-2.80;98.00
26575;DHT22;67165;50.256;10.978;2023-04-06T03:40:03;-2.80;98.00
26575;DHT22;67165;50.256;10.978;2023-04-06T03:42:29;-2.80;98.00
26575;DHT22;67165;50.256;10.978;2023-04-06T03:44:55;-2.80;98.00
26575;DHT22;67165;50.256;10.978;2023-04-06T03:47:20;-2.80;98.00
26575;DHT22;67165;50.256;10.978;2023-04-06T03:49:46;-2.80;98.00
26575;DHT22;67165;50.256;10.978;2023-04-06T03:52:12;-2.80;98.00
26575;DHT22;67165;50.256;10.978;2023-04-06T03:54:37;-2.80;98.00
26575;DHT22;67165;50.256;10.978;2023-04-06T03:57:04;-2.70;98.00
26575;DHT22;67165;50.256;10.978;2023-04-06T03:59:29;-2.70;98.00
26575;DHT22;67165;50.256;10.978;2023-04-06T04:01:55;-2.70;98.00
26575;DHT22;67165;50.256;10.978;2023-04-06T04:04:21;-2.60;98.00
26575;DHT22;67165;50.256;10.978;2023-04-06T04:06:47;-2.70;98.00
26575;DHT22;67165;50.256;10.978;2023-04-06T04:09:12;-2.70;98.00
26575;DHT22;67165;50.256;10.978;2023-04-06T04:11:38;-2.70;98.00
26575;DHT22;67165;50.256;10.978;2023-04-06T04:14:04;-2.70;98.00
26575;DHT22;67165;50.256;10.978;2023-04-06T04:16:30;-2.70;98.00
26575;DHT22;67165;50.256;10.978;2023-04-06T04:18:56;-2.70;98.00
26575;DHT22;67165;50.256;10.978;2023-04-06T04:21:23;-2.70;98.00
26575;DHT22;67165;50.256;10.978;2023-04-06T04:23:49;-2.60;98.00
26575;DHT22;67165;50.256;10.978;2023-04-06T04:26:15;-2.60;98.00
26575;DHT22;67165;50.256;10.978;2023-04-06T04:28:40;-2.70;98.00
26575;DHT22;67165;50.256;10.978;2023-04-06T04:31:06;-2.70;98.00
26575;DHT22;67165;50.256;10.978;2023-04-06T04:33:32;-2.70;98.00
26575;DHT22;67165;50.256;10.978;2023-04-06T04:35:57;-2.70;98.00
26575;DHT22;67165;50.256;10.978;2023-04-06T04:38:23;-2.70;98.00
26575;DHT22;67165;50.256;10.978;2023-04-06T04:40:49;-2.80;98.00
26575;DHT22;67165;50.256;10.978;2023-04-06T04:43:14;-2.80;98.00
26575;DHT22;67165;50.256;10.978;2023-04-06T04:45:40;-2.80;98.00
26575;DHT22;67165;50.256;10.978;2023-04-06T04:48:06;-2.80;98.00
26575;DHT22;67165;50.256;10.978;2023-04-06T04:50:33;-2.80;98.00
26575;DHT22;67165;50.256;10.978;2023-04-06T04:52:58;-2.80;98.00
26575;DHT22;67165;50.256;10.978;2023-04-06T04:55:24;-2.80;98.00
26575;DHT22;67165;50.256;10.978;2023-04-06T04:57:50;-2.80;98.00
26575;DHT22;67165;50.256;10.978;2023-04-06T05:00:16;-2.80;98.00
26575;DHT22;67165;50.256;10.978;2023-04-06T05:02:41;-2.80;98.00
26575;DHT22;67165;50.256;10.978;2023-04-06T05:05:07;-2.70;98.00
26575;DHT22;67165;50.256;10.978;2023-04-06T05:07:33;-2.80;98.00
26575;DHT22;67165;50.256;10.978;2023-04-06T05:09:59;-2.80;98.00
26575;DHT22;67165;50.256;10.978;2023-04-06T05:12:25;-2.80;98.00
26575;DHT22;67165;50.256;10.978;2023-04-06T05:14:53;-2.80;98.00
26575;DHT22;67165;50.256;10.978;2023-04-06T05:17:19;-2.70;98.00
26575;DHT22;67165;50.256;10.978;2023-04-06T05:19:45;-2.70;98.00
26575;DHT22;67165;50.256;10.978;2023-04-06T05:22:11;-2.60;98.00
26575;DHT22;67165;50.256;10.978;2023-04-06T05:24:36;-2.60;98.00
26575;DHT22;67165;50.256;10.978;2023-04-06T05:27:02;-2.60;98.00
26575;DHT22;67165;50.256;10.978;2023-04-06T05:29:29;-2.50;98.00
26575;DHT22;67165;50.256;10.978;2023-04-06T05:31:55;-2.50;98.00
26575;DHT22;67165;50.256;10.978;2023-04-06T05:34:20;-2.40;98.00
26575;DHT22;67165;50.256;10.978;2023-04-06T05:36:46;-2.40;98.00
26575;DHT22;67165;50.256;10.978;2023-04-06T05:39:12;-2.30;98.00
26575;DHT22;67165;50.256;10.978;2023-04-06T05:41:38;-2.20;98.00
26575;DHT22;67165;50.256;10.978;2023-04-06T05:44:04;-2.00;98.00
26575;DHT22;67165;50.256;10.978;2023-04-06T05:46:30;-1.90;98.00
26575;DHT22;67165;50.256;10.978;2023-04-06T05:48:55;-1.70;98.00
26575;DHT22;67165;50.256;10.978;2023-04-06T05:51:21;-1.50;98.00
26575;DHT22;67165;50.256;10.978;2023-04-06T05:53:47;-1.30;98.00
26575;DHT22;67165;50.256;10.978;2023-04-06T05:56:12;-1.10;98.00
26575;DHT22;67165;50.256;10.978;2023-04-06T05:58:38;-0.90;98.00
26575;DHT22;67165;50.256;10.978;2023-04-06T06:01:04;-0.60;98.00
26575;DHT22;67165;50.256;10.978;2023-04-06T06:03:30;-0.20;98.00
26575;DHT22;67165;50.256;10.978;2023-04-06T06:06:00;-0.20;98.00
26575;DHT22;67165;50.256;10.978;2023-04-06T06:08:27;0.00;98.00
26575;DHT22;67165;50.256;10.978;2023-04-06T06:10:53;0.20;98.00
26575;DHT22;67165;50.256;10.978;2023-04-06T06:13:18;0.40;98.00
26575;DHT22;67165;50.256;10.978;2023-04-06T06:15:46;0.70;98.00
26575;DHT22;67165;50.256;10.978;2023-04-06T06:18:12;1.00;98.00
26575;DHT22;67165;50.256;10.978;2023-04-06T06:20:37;1.20;98.00
26575;DHT22;67165;50.256;10.978;2023-04-06T06:23:03;1.40;98.00
26575;DHT22;67165;50.256;10.978;2023-04-06T06:25:29;1.60;98.00
26575;DHT22;67165;50.256;10.978;2023-04-06T06:27:56;1.70;98.00
26575;DHT22;67165;50.256;10.978;2023-04-06T06:30:22;1.90;98.00
26575;DHT22;67165;50.256;10.978;2023-04-06T06:32:49;2.10;98.00
26575;DHT22;67165;50.256;10.978;2023-04-06T06:35:15;2.40;98.00
26575;DHT22;67165;50.256;10.978;2023-04-06T06:37:40;2.60;98.00
26575;DHT22;67165;50.256;10.978;2023-04-06T06:40:06;2.80;98.00
26575;DHT22;67165;50.256;10.978;2023-04-06T06:42:32;2.80;98.00
26575;DHT22;67165;50.256;10.978;2023-04-06T06:44:58;3.00;98.00
26575;DHT22;67165;50.256;10.978;2023-04-06T06:47:24;3.00;98.00
26575;DHT22;67165;50.256;10.978;2023-04-06T06:49:50;3.00;98.00
26575;DHT22;67165;50.256;10.978;2023-04-06T06:52:16;3.20;98.00
26575;DHT22;67165;50.256;10.978;2023-04-06T06:54:42;3.30;98.00
26575;DHT22;67165;50.256;10.978;2023-04-06T06:57:07;3.10;98.00
26575;DHT22;67165;50.256;10.978;2023-04-06T06:59:33;3.20;98.00
26575;DHT22;67165;50.256;10.978;2023-04-06T07:01:59;3.20;98.00
26575;DHT22;67165;50.256;10.978;2023-04-06T07:04:24;3.20;98.00
26575;DHT22;67165;50.256;10.978;2023-04-06T07:06:50;3.20;98.00
26575;DHT22;67165;50.256;10.978;2023-04-06T07:09:16;3.20;98.00
26575;DHT22;67165;50.256;10.978;2023-04-06T07:11:42;3.30;98.00
26575;DHT22;67165;50.256;10.978;2023-04-06T07:14:07;3.40;98.00
26575;DHT22;67165;50.256;10.978;2023-04-06T07:16:33;3.40;98.00
26575;DHT22;67165;50.256;10.978;2023-04-06T07:18:59;3.50;98.00
26575;DHT22;67165;50.256;10.978;2023-04-06T07:21:24;3.50;98.00
26575;DHT22;67165;50.256;10.978;2023-04-06T07:23:50;3.40;98.00
26575;DHT22;67165;50.256;10.978;2023-04-06T07:26:16;3.50;98.00
26575;DHT22;67165;50.256;10.978;2023-04-06T07:28:42;3.70;98.00
26575;DHT22;67165;50.256;10.978;2023-04-06T07:31:07;3.70;98.00
26575;DHT22;67165;50.256;10.978;2023-04-06T07:33:33;3.70;98.00
26575;DHT22;67165;50.256;10.978;2023-04-06T07:35:59;3.80;98.00
26575;DHT22;67165;50.256;10.978;2023-04-06T07:38:24;3.90;98.00
26575;DHT22;67165;50.256;10.978;2023-04-06T07:40:58;4.00;98.00
26575;DHT22;67165;50.256;10.978;2023-04-06T07:43:23;4.10;98.00
26575;DHT22;67165;50.256;10.978;2023-04-06T07:45:49;4.20;98.00
26575;DHT22;67165;50.256;10.978;2023-04-06T07:48:15;4.30;98.00
26575;DHT22;67165;50.256;10.978;2023-04-06T07:50:41;4.50;98.00
26575;DHT22;67165;50.256;10.978;2023-04-06T07:53:08;4.50;98.00
26575;DHT22;67165;50.256;10.978;2023-04-06T07:55:34;4.60;98.00
26575;DHT22;67165;50.256;10.978;2023-04-06T07:58:00;4.60;98.00
26575;DHT22;67165;50.256;10.978;2023-04-06T08:00:26;4.70;98.00
26575;DHT22;67165;50.256;10.978;2023-04-06T08:02:51;5.00;98.00
26575;DHT22;67165;50.256;10.978;2023-04-06T08:05:17;5.00;98.00
26575;DHT22;67165;50.256;10.978;2023-04-06T08:07:43;5.10;98.00
26575;DHT22;67165;50.256;10.978;2023-04-06T08:10:09;5.50;98.00
26575;DHT22;67165;50.256;10.978;2023-04-06T08:12:35;5.70;98.00
26575;DHT22;67165;50.256;10.978;2023-04-06T08:15:01;5.80;98.00
26575;DHT22;67165;50.256;10.978;2023-04-06T08:17:28;5.70;98.00
26575;DHT22;67165;50.256;10.978;2023-04-06T08:19:55;5.90;98.00
26575;DHT22;67165;50.256;10.978;2023-04-06T08:22:21;5.90;98.00
26575;DHT22;67165;50.256;10.978;2023-04-06T08:24:47;6.00;98.00
26575;DHT22;67165;50.256;10.978;2023-04-06T08:27:12;5.90;98.00
26575;DHT22;67165;50.256;10.978;2023-04-06T08:29:40;6.00;98.00
26575;DHT22;67165;50.256;10.978;2023-04-06T08:32:06;6.10;98.00
26575;DHT22;67165;50.256;10.978;2023-04-06T08:34:33;6.10;98.00
26575;DHT22;67165;50.256;10.978;2023-04-06T08:36:59;6.10;98.00
26575;DHT22;67165;50.256;10.978;2023-04-06T08:39:25;6.30;98.00
26575;DHT22;67165;50.256;10.978;2023-04-06T08:41:53;6.40;98.00
26575;DHT22;67165;50.256;10.978;2023-04-06T08:44:22;6.50;98.00
26575;DHT22;67165;50.256;10.978;2023-04-06T08:46:48;6.60;98.00
26575;DHT22;67165;50.256;10.978;2023-04-06T08:49:16;6.60;98.00
26575;DHT22;67165;50.256;10.978;2023-04-06T08:51:42;6.70;98.00
26575;DHT22;67165;50.256;10.978;2023-04-06T08:54:08;6.80;98.00
26575;DHT22;67165;50.256;10.978;2023-04-06T08:56:37;6.80;98.00
26575;DHT22;67165;50.256;10.978;2023-04-06T08:59:03;6.90;98.00
26575;DHT22;67165;50.256;10.978;2023-04-06T09:01:31;7.00;98.00
26575;DHT22;67165;50.256;10.978;2023-04-06T09:03:59;7.00;98.00
26575;DHT22;67165;50.256;10.978;2023-04-06T09:06:30;7.20;98.00
26575;DHT22;67165;50.256;10.978;2023-04-06T09:08:57;7.30;98.00
26575;DHT22;67165;50.256;10.978;2023-04-06T09:11:23;7.40;98.00
26575;DHT22;67165;50.256;10.978;2023-04-06T09:13:54;7.50;98.00
26575;DHT22;67165;50.256;10.978;2023-04-06T09:16:20;7.60;98.00
26575;DHT22;67165;50.256;10.978;2023-04-06T09:18:47;7.60;98.00
26575;DHT22;67165;50.256;10.978;2023-04-06T09:21:15;7.60;97.70
26575;DHT22;67165;50.256;10.978;2023-04-06T09:23:41;7.70;98.00
26575;DHT22;67165;50.256;10.978;2023-04-06T09:26:13;7.80;97.30
26575;DHT22;67165;50.256;10.978;2023-04-06T09:28:52;7.90;98.00
26575;DHT22;67165;50.256;10.978;2023-04-06T09:31:30;7.90;97.90
26575;DHT22;67165;50.256;10.978;2023-04-06T09:33:59;8.10;97.00
26575;DHT22;67165;50.256;10.978;2023-04-06T09:36:32;7.90;97.00
26575;DHT22;67165;50.256;10.978;2023-04-06T09:39:04;8.00;97.30
26575;DHT22;67165;50.256;10.978;2023-04-06T09:41:32;8.10;97.00
26575;DHT22;67165;50.256;10.978;2023-04-06T09:46:33;8.20;96.50
26575;DHT22;67165;50.256;10.978;2023-04-06T09:49:02;8.30;97.40
26575;DHT22;67165;50.256;10.978;2023-04-06T09:51:39;8.40;96.90
26575;DHT22;67165;50.256;10.978;2023-04-06T09:54:06;8.50;95.70
26575;DHT22;67165;50.256;10.978;2023-04-06T09:59:47;8.70;95.90
26575;DHT22;67165;50.256;10.978;2023-04-06T10:02:39;8.70;95.70
26575;DHT22;67165;50.256;10.978;2023-04-06T10:07:57;8.80;94.80
26575;DHT22;67165;50.256;10.978;2023-04-06T10:10:25;8.80;92.90
26575;DHT22;67165;50.256;10.978;2023-04-06T10:12:51;8.80;92.90
26575;DHT22;67165;50.256;10.978;2023-04-06T10:15:19;8.70;91.90
26575;DHT22;67165;50.256;10.978;2023-04-06T10:17:45;8.80;93.90
26575;DHT22;67165;50.256;10.978;2023-04-06T10:20:21;8.70;91.60
26575;DHT22;67165;50.256;10.978;2023-04-06T10:25:30;8.80;90.00
26575;DHT22;67165;50.256;10.978;2023-04-06T10:28:00;8.90;89.20
26575;DHT22;67165;50.256;10.978;2023-04-06T10:30:27;9.00;91.00
26575;DHT22;67165;50.256;10.978;2023-04-06T10:32:53;9.20;92.50
26575;DHT22;67165;50.256;10.978;2023-04-06T10:35:18;9.20;91.80
26575;DHT22;67165;50.256;10.978;2023-04-06T10:38:02;9.30;88.80
26575;DHT22;67165;50.256;10.978;2023-04-06T10:40:28;9.40;89.60
26575;DHT22;67165;50.256;10.978;2023-04-06T10:42:55;9.40;89.20
26575;DHT22;67165;50.256;10.978;2023-04-06T10:45:25;9.20;89.40
26575;DHT22;67165;50.256;10.978;2023-04-06T10:47:55;9.30;90.00
26575;DHT22;67165;50.256;10.978;2023-04-06T10:50:24;9.40;89.10
26575;DHT22;67165;50.256;10.978;2023-04-06T10:53:01;9.30;89.70
26575;DHT22;67165;50.256;10.978;2023-04-06T10:55:28;9.30;89.60
26575;DHT22;67165;50.256;10.978;2023-04-06T10:57:54;9.30;88.90
26575;DHT22;67165;50.256;10.978;2023-04-06T11:00:20;9.40;89.10
26575;DHT22;67165;50.256;10.978;2023-04-06T11:02:46;9.50;90.20
26575;DHT22;67165;50.256;10.978;2023-04-06T11:05:13;9.60;90.10
26575;DHT22;67165;50.256;10.978;2023-04-06T11:07:39;9.50;88.70
26575;DHT22;67165;50.256;10.978;2023-04-06T11:10:06;9.50;89.00
26575;DHT22;67165;50.256;10.978;2023-04-06T11:12:32;9.50;88.00
26575;DHT22;67165;50.256;10.978;2023-04-06T11:14:59;9.40;87.90
26575;DHT22;67165;50.256;10.978;2023-04-06T11:17:33;9.50;88.90
26575;DHT22;67165;50.256;10.978;2023-04-06T11:20:00;9.50;88.20
26575;DHT22;67165;50.256;10.978;2023-04-06T11:22:27;9.40;89.00
26575;DHT22;67165;50.256;10.978;2023-04-06T11:24:53;9.40;88.40
26575;DHT22;67165;50.256;10.978;2023-04-06T11:27:19;9.60;88.70
26575;DHT22;67165;50.256;10.978;2023-04-06T11:29:46;9.60;88.90
26575;DHT22;67165;50.256;10.978;2023-04-06T11:32:22;9.60;89.10
26575;DHT22;67165;50.256;10.978;2023-04-06T11:34:49;9.70;88.40
26575;DHT22;67165;50.256;10.978;2023-04-06T11:37:15;9.70;89.10
26575;DHT22;67165;50.256;10.978;2023-04-06T11:39:51;9.80;90.40
26575;DHT22;67165;50.256;10.978;2023-04-06T11:42:25;9.70;87.80
26575;DHT22;67165;50.256;10.978;2023-04-06T11:44:54;9.70;89.00
26575;DHT22;67165;50.256;10.978;2023-04-06T11:47:20;9.80;88.80
26575;DHT22;67165;50.256;10.978;2023-04-06T11:49:52;9.70;87.90
26575;DHT22;67165;50.256;10.978;2023-04-06T11:52:23;9.70;88.30
26575;DHT22;67165;50.256;10.978;2023-04-06T11:54:51;9.80;88.70
26575;DHT22;67165;50.256;10.978;2023-04-06T11:57:20;10.00;88.40
26575;DHT22;67165;50.256;10.978;2023-04-06T11:59:47;10.00;87.70
26575;DHT22;67165;50.256;10.978;2023-04-06T12:02:13;10.00;88.80
26575;DHT22;67165;50.256;10.978;2023-04-06T12:04:38;10.10;88.40
26575;DHT22;67165;50.256;10.978;2023-04-06T12:07:04;10.10;89.70
26575;DHT22;67165;50.256;10.978;2023-04-06T12:09:30;10.10;89.60
26575;DHT22;67165;50.256;10.978;2023-04-06T12:11:56;10.10;87.90
26575;DHT22;67165;50.256;10.978;2023-04-06T12:14:23;10.20;88.50
26575;DHT22;67165;50.256;10.978;2023-04-06T12:16:48;10.20;88.10
26575;DHT22;67165;50.256;10.978;2023-04-06T12:19:14;10.20;88.90
26575;DHT22;67165;50.256;10.978;2023-04-06T12:21:40;10.20;88.50
26575;DHT22;67165;50.256;10.978;2023-04-06T12:24:06;10.30;87.50
26575;DHT22;67165;50.256;10.978;2023-04-06T12:26:32;10.20;87.90
26575;DHT22;67165;50.256;10.978;2023-04-06T12:28:59;10.10;86.90
26575;DHT22;67165;50.256;10.978;2023-04-06T12:31:32;10.20;87.10
26575;DHT22;67165;50.256;10.978;2023-04-06T12:33:58;10.20;87.90
26575;DHT22;67165;50.256;10.978;2023-04-06T12:36:23;10.30;88.90
26575;DHT22;67165;50.256;10.978;2023-04-06T12:38:50;10.40;88.80
26575;DHT22;67165;50.256;10.978;2023-04-06T12:41:17;10.40;87.50
26575;DHT22;67165;50.256;10.978;2023-04-06T12:43:43;10.40;88.00
26575;DHT22;67165;50.256;10.978;2023-04-06T12:46:10;10.50;86.90
26575;DHT22;67165;50.256;10.978;2023-04-06T12:48:36;10.50;87.70
26575;DHT22;67165;50.256;10.978;2023-04-06T12:51:04;10.60;87.20
26575;DHT22;67165;50.256;10.978;2023-04-06T12:53:31;10.50;87.90
26575;DHT22;67165;50.256;10.978;2023-04-06T12:55:57;10.50;87.80
26575;DHT22;67165;50.256;10.978;2023-04-06T12:58:24;10.40;88.30
26575;DHT22;67165;50.256;10.978;2023-04-06T13:00:52;10.50;88.30
26575;DHT22;67165;50.256;10.978;2023-04-06T13:03:19;10.40;87.40
26575;DHT22;67165;50.256;10.978;2023-04-06T13:05:47;10.40;86.60
26575;DHT22;67165;50.256;10.978;2023-04-06T13:08:13;10.50;87.40
26575;DHT22;67165;50.256;10.978;2023-04-06T13:10:50;10.50;87.50
26575;DHT22;67165;50.256;10.978;2023-04-06T13:13:28;10.50;86.60
26575;DHT22;67165;50.256;10.978;2023-04-06T13:15:55;10.40;86.30
26575;DHT22;67165;50.256;10.978;2023-04-06T13:18:21;10.40;87.30
26575;DHT22;67165;50.256;10.978;2023-04-06T13:20:48;10.40;87.20
26575;DHT22;67165;50.256;10.978;2023-04-06T13:23:14;10.30;87.40
26575;DHT22;67165;50.256;10.978;2023-04-06T13:25:40;10.20;86.90
26575;DHT22;67165;50.256;10.978;2023-04-06T13:28:06;10.20;88.00
26575;DHT22;67165;50.256;10.978;2023-04-06T13:30:32;10.40;87.30
26575;DHT22;67165;50.256;10.978;2023-04-06T13:32:58;10.50;87.50
26575;DHT22;67165;50.256;10.978;2023-04-06T13:35:23;10.40;85.40
26575;DHT22;67165;50.256;10.978;2023-04-06T13:37:49;10.50;85.70
26575;DHT22;67165;50.256;10.978;2023-04-06T13:40:17;10.50;85.80
26575;DHT22;67165;50.256;10.978;2023-04-06T13:42:42;10.70;85.40
26575;DHT22;67165;50.256;10.978;2023-04-06T13:45:10;10.60;84.70
26575;DHT22;67165;50.256;10.978;2023-04-06T13:47:36;10.70;84.70
26575;DHT22;67165;50.256;10.978;2023-04-06T13:50:02;10.70;85.50
26575;DHT22;67165;50.256;10.978;2023-04-06T13:52:29;10.80;85.20
26575;DHT22;67165;50.256;10.978;2023-04-06T13:54:55;10.80;85.40
26575;DHT22;67165;50.256;10.978;2023-04-06T13:57:20;10.90;84.80
26575;DHT22;67165;50.256;10.978;2023-04-06T13:59:46;10.90;86.00
26575;DHT22;67165;50.256;10.978;2023-04-06T14:02:12;10.90;86.60
26575;DHT22;67165;50.256;10.978;2023-04-06T14:04:38;10.90;87.00
26575;DHT22;67165;50.256;10.978;2023-04-06T14:07:03;10.90;85.90
26575;DHT22;67165;50.256;10.978;2023-04-06T14:09:32;11.00;86.80
26575;DHT22;67165;50.256;10.978;2023-04-06T14:11:58;11.00;86.00
26575;DHT22;67165;50.256;10.978;2023-04-06T14:14:24;11.00;86.10
26575;DHT22;67165;50.256;10.978;2023-04-06T14:16:49;11.00;86.50
26575;DHT22;67165;50.256;10.978;2023-04-06T14:19:16;11.00;85.70
26575;DHT22;67165;50.256;10.978;2023-04-06T14:21:46;11.10;85.80
26575;DHT22;67165;50.256;10.978;2023-04-06T14:24:12;11.10;85.30
26575;DHT22;67165;50.256;10.978;2023-04-06T14:26:39;11.10;85.20
26575;DHT22;67165;50.256;10.978;2023-04-06T14:29:07;11.10;85.90
26575;DHT22;67165;50.256;10.978;2023-04-06T14:31:33;11.00;86.10
26575;DHT22;67165;50.256;10.978;2023-04-06T14:34:01;11.00;85.60
26575;DHT22;67165;50.256;10.978;2023-04-06T14:36:27;11.00;84.70
26575;DHT22;67165;50.256;10.978;2023-04-06T14:38:56;10.80;84.80
26575;DHT22;67165;50.256;10.978;2023-04-06T14:41:23;10.90;85.30
26575;DHT22;67165;50.256;10.978;2023-04-06T14:43:50;10.90;84.90
26575;DHT22;67165;50.256;10.978;2023-04-06T14:46:18;10.90;84.20
26575;DHT22;67165;50.256;10.978;2023-04-06T14:48:44;10.90;85.20
26575;DHT22;67165;50.256;10.978;2023-04-06T14:51:11;10.90;87.00
26575;DHT22;67165;50.256;10.978;2023-04-06T14:53:37;11.00;86.50
26575;DHT22;67165;50.256;10.978;2023-04-06T14:56:03;11.00;85.90
26575;DHT22;67165;50.256;10.978;2023-04-06T14:58:28;11.00;86.30
26575;DHT22;67165;50.256;10.978;2023-04-06T15:00:58;11.00;86.40
26575;DHT22;67165;50.256;10.978;2023-04-06T15:03:25;10.90;85.70
26575;DHT22;67165;50.256;10.978;2023-04-06T15:05:52;10.90;86.10
26575;DHT22;67165;50.256;10.978;2023-04-06T15:08:18;10.90;86.80
26575;DHT22;67165;50.256;10.978;2023-04-06T15:10:46;10.90;87.20
26575;DHT22;67165;50.256;10.978;2023-04-06T15:13:12;10.90;87.30
26575;DHT22;67165;50.256;10.978;2023-04-06T15:15:38;10.90;87.10
26575;DHT22;67165;50.256;10.978;2023-04-06T15:18:04;10.90;87.00
26575;DHT22;67165;50.256;10.978;2023-04-06T15:20:30;10.90;87.00
26575;DHT22;67165;50.256;10.978;2023-04-06T15:22:56;11.00;85.10
26575;DHT22;67165;50.256;10.978;2023-04-06T15:25:22;10.90;85.80
26575;DHT22;67165;50.256;10.978;2023-04-06T15:27:47;10.80;86.70
26575;DHT22;67165;50.256;10.978;2023-04-06T15:30:13;10.80;86.10
26575;DHT22;67165;50.256;10.978;2023-04-06T15:32:39;10.80;85.00